createdAt,value
2023-03-17T00:00:11.386Z,5.07
2023-03-17T00:08:05.216Z,4.96
2023-03-17T00:13:37.304Z,4.96
2023-03-17T00:19:09.521Z,4.86
2023-03-17T00:24:41.820Z,4.79
2023-03-17T00:30:13.714Z,4.68
2023-03-17T00:35:45.458Z,4.62
2023-03-17T00:41:17.493Z,4.54
2023-03-17T00:46:49.431Z,4.51
2023-03-17T00:52:20.862Z,4.39
2023-03-17T00:57:52.687Z,4.37
2023-03-17T01:03:24.803Z,4.31
2023-03-17T01:08:56.398Z,4.20
2023-03-17T01:14:28.371Z,4.18
2023-03-17T01:19:59.871Z,4.10
2023-03-17T01:25:31.666Z,4.06
2023-03-17T01:31:03.643Z,4.01
2023-03-17T01:36:35.163Z,3.97
2023-03-17T01:42:06.969Z,3.92
2023-03-17T01:47:38.466Z,3.89
2023-03-17T01:53:09.985Z,3.85
2023-03-17T01:58:41.998Z,3.78
2023-03-17T02:04:13.694Z,3.75
2023-03-17T02:09:45.457Z,3.72
2023-03-17T02:15:17.409Z,3.68
2023-03-17T02:20:49.605Z,3.65
2023-03-17T02:26:22.080Z,3.59
2023-03-17T02:31:54.135Z,3.57
2023-03-17T02:37:25.839Z,3.50
2023-03-17T02:48:28.270Z,3.43
2023-03-17T02:54:00.345Z,3.43
2023-03-17T02:59:32.835Z,3.41
2023-03-17T03:05:04.716Z,3.43
2023-03-17T03:10:36.633Z,3.41
2023-03-17T03:16:08.094Z,3.50
2023-03-17T03:22:04.498Z,0.00
2023-03-17T03:27:36.528Z,3.58
2023-03-17T03:33:08.478Z,3.55
2023-03-17T03:38:40.118Z,3.55
2023-03-17T03:44:11.952Z,3.57
2023-03-17T03:49:43.871Z,3.57
2023-03-17T03:55:15.726Z,3.53
2023-03-17T04:00:47.839Z,3.54
2023-03-17T04:06:19.410Z,3.53
2023-03-17T04:11:51.702Z,3.48
2023-03-17T04:17:23.379Z,3.48
2023-03-17T04:22:55.923Z,3.47
2023-03-17T04:28:27.981Z,3.48
2023-03-17T04:34:00.004Z,3.54
2023-03-17T04:39:32.106Z,3.53
2023-03-17T04:45:04.230Z,3.48
2023-03-17T04:50:36.072Z,3.44
2023-03-17T04:56:07.396Z,3.38
2023-03-17T05:01:39.337Z,3.37
2023-03-17T05:07:11.051Z,3.32
2023-03-17T05:12:42.853Z,3.30
2023-03-17T05:18:14.792Z,3.28
2023-03-17T05:23:46.641Z,3.32
2023-03-17T05:29:18.888Z,3.28
2023-03-17T05:34:50.790Z,3.26
2023-03-17T05:40:23.929Z,3.27
2023-03-17T05:45:54.435Z,3.36
2023-03-17T05:51:26.331Z,3.43
2023-03-17T05:56:58.128Z,3.82
2023-03-17T06:02:29.875Z,4.09
2023-03-17T06:08:01.756Z,4.61
2023-03-17T06:13:33.823Z,4.92
2023-03-17T06:19:05.746Z,5.80
2023-03-17T06:24:37.627Z,6.21
2023-03-17T06:30:09.289Z,6.57
2023-03-17T06:35:41.706Z,6.56
2023-03-17T06:41:13.661Z,6.45
2023-03-17T06:46:45.412Z,6.36
2023-03-17T06:52:16.949Z,6.75
2023-03-17T06:57:50.935Z,7.26
2023-03-17T07:05:42.759Z,0.00
2023-03-17T07:11:14.350Z,9.43
2023-03-17T07:22:15.870Z,10.43
2023-03-17T07:27:47.976Z,10.81
2023-03-17T07:33:19.878Z,11.55
2023-03-17T07:38:51.565Z,12.05
2023-03-17T07:44:23.238Z,12.91
2023-03-17T07:49:55.301Z,13.37
2023-03-17T07:55:26.991Z,14.01
2023-03-17T08:00:58.960Z,14.21
2023-03-17T08:06:30.372Z,14.74
2023-03-17T08:12:02.683Z,14.68
2023-03-17T08:17:34.758Z,14.91
2023-03-17T08:23:06.531Z,15.12
2023-03-17T08:28:38.439Z,15.62
2023-03-17T08:34:11.013Z,15.93
2023-03-17T08:39:42.993Z,16.10
2023-03-17T08:45:15.082Z,16.12
2023-03-17T08:50:46.307Z,16.03
2023-03-17T08:56:18.165Z,16.29
2023-03-17T09:01:50.222Z,16.43
2023-03-17T09:07:22.384Z,16.51
2023-03-17T09:12:54.436Z,16.61
2023-03-17T09:18:26.315Z,16.75
2023-03-17T09:23:59.263Z,16.71
2023-03-17T09:29:29.771Z,16.74
2023-03-17T09:35:01.720Z,16.91
2023-03-17T09:40:34.223Z,17.17
2023-03-17T09:46:06.051Z,17.35
2023-03-17T09:51:38.126Z,17.45
2023-03-17T09:57:10.301Z,17.38
2023-03-17T10:02:42.458Z,17.40
2023-03-17T10:08:29.656Z,17.22
2023-03-17T10:13:46.321Z,16.92
2023-03-17T10:19:17.810Z,16.95
2023-03-17T10:24:49.604Z,16.82
2023-03-17T10:30:21.816Z,16.76
2023-03-17T10:35:54.265Z,16.84
2023-03-17T10:41:26.802Z,16.98
2023-03-17T10:46:58.547Z,17.42
2023-03-17T10:52:30.545Z,17.61
2023-03-17T10:58:02.588Z,18.13
2023-03-17T11:03:34.378Z,18.21
2023-03-17T11:09:05.886Z,18.31
2023-03-17T11:14:37.666Z,18.28
2023-03-17T11:20:09.359Z,18.34
2023-03-17T11:25:41.528Z,18.28
2023-03-17T11:31:13.861Z,18.12
2023-03-17T11:36:45.460Z,18.02
2023-03-17T11:42:17.229Z,18.17
2023-03-17T11:53:18.930Z,18.57
2023-03-17T11:58:50.729Z,18.69
2023-03-17T12:04:22.895Z,18.86
2023-03-17T12:09:54.928Z,18.83
2023-03-17T12:15:27.189Z,18.85
2023-03-17T12:20:59.421Z,18.86
2023-03-17T12:26:31.000Z,18.86
2023-03-17T12:32:03.215Z,18.87
2023-03-17T12:37:35.536Z,18.99
2023-03-17T12:45:30.071Z,19.35
2023-03-17T12:51:01.256Z,19.44
2023-03-17T12:56:33.495Z,19.85
2023-03-17T13:02:05.623Z,19.93
2023-03-17T13:07:38.048Z,20.05
2023-03-17T13:13:09.856Z,20.05
2023-03-17T13:18:41.505Z,20.14
2023-03-17T13:24:13.960Z,20.21
2023-03-17T13:29:45.823Z,20.05
2023-03-17T13:35:17.287Z,20.02
2023-03-17T13:40:48.934Z,19.96
2023-03-17T13:46:20.698Z,19.97
2023-03-17T13:51:59.486Z,20.02
2023-03-17T13:57:24.139Z,20.03
2023-03-17T14:03:19.812Z,0.00
2023-03-17T14:08:50.954Z,20.12
2023-03-17T14:14:32.086Z,20.23
2023-03-17T14:19:53.651Z,20.33
2023-03-17T14:25:25.162Z,20.31
2023-03-17T14:30:56.817Z,20.27
2023-03-17T14:36:28.159Z,20.41
2023-03-17T14:42:00.002Z,20.45
2023-03-17T14:47:32.076Z,20.42
2023-03-17T14:53:04.326Z,20.41
2023-03-17T14:58:35.978Z,20.14
2023-03-17T15:09:37.151Z,19.82
2023-03-17T15:15:09.386Z,19.79
2023-03-17T15:20:41.106Z,19.66
2023-03-17T15:26:13.350Z,19.62
2023-03-17T15:31:45.468Z,19.51
2023-03-17T15:37:17.508Z,19.48
2023-03-17T15:42:49.392Z,19.40
2023-03-17T15:48:20.908Z,19.35
2023-03-17T15:53:52.381Z,19.23
2023-03-17T15:59:23.562Z,19.20
2023-03-17T16:04:55.250Z,18.80
2023-03-17T16:10:26.820Z,18.68
2023-03-17T16:15:58.584Z,18.43
2023-03-17T16:21:30.189Z,18.33
2023-03-17T16:27:02.349Z,18.20
2023-03-17T16:32:34.146Z,18.06
2023-03-17T16:38:05.401Z,17.85
2023-03-17T16:43:37.350Z,17.74
2023-03-17T16:49:09.070Z,17.47
2023-03-17T16:54:40.971Z,17.31
2023-03-17T17:00:12.608Z,17.23
2023-03-17T17:05:44.642Z,16.98
2023-03-17T17:11:16.681Z,16.82
2023-03-17T17:16:48.449Z,16.58
2023-03-17T17:24:42.150Z,16.34
2023-03-17T17:30:14.114Z,16.10
2023-03-17T17:35:45.599Z,15.97
2023-03-17T17:41:17.277Z,15.72
2023-03-17T17:52:18.591Z,15.37
2023-03-17T17:57:52.383Z,15.26
2023-03-17T18:03:22.048Z,15.14
2023-03-17T18:08:54.267Z,14.99
2023-03-17T18:14:26.274Z,14.89
2023-03-17T18:19:58.637Z,14.72
2023-03-17T18:25:30.815Z,14.64
2023-03-17T18:31:03.303Z,14.48
2023-03-17T18:36:35.214Z,14.38
2023-03-17T18:42:07.093Z,14.23
2023-03-17T18:47:38.666Z,14.16
2023-03-17T18:53:10.261Z,14.03
2023-03-17T18:58:42.386Z,13.96
2023-03-17T19:04:13.872Z,13.80
2023-03-17T19:09:46.026Z,13.70
2023-03-17T19:15:17.914Z,13.58
2023-03-17T19:20:50.238Z,13.54
2023-03-17T19:26:22.151Z,13.36
2023-03-17T19:31:54.168Z,13.25
2023-03-17T19:37:26.252Z,13.01
2023-03-17T19:42:58.010Z,12.88
2023-03-17T19:48:29.749Z,12.61
2023-03-17T19:54:01.361Z,12.50
2023-03-17T19:59:33.312Z,12.25
2023-03-17T20:05:05.097Z,12.16
2023-03-17T20:10:37.437Z,11.95
2023-03-17T20:16:09.288Z,11.85
2023-03-17T20:21:41.044Z,11.70
2023-03-17T20:27:12.680Z,11.65
2023-03-17T20:32:44.815Z,11.53
2023-03-17T20:38:16.674Z,11.43
2023-03-17T20:43:48.270Z,11.29
2023-03-17T20:49:20.317Z,11.19
2023-03-17T20:54:51.926Z,11.02
2023-03-17T21:00:23.808Z,10.91
2023-03-17T21:05:55.370Z,10.73
2023-03-17T21:11:27.148Z,10.63
2023-03-17T21:16:58.720Z,10.44
2023-03-17T21:22:30.368Z,10.37
2023-03-17T21:28:02.571Z,10.18
2023-03-17T21:33:34.315Z,10.10
2023-03-17T21:39:06.300Z,10.01
2023-03-17T21:44:38.399Z,9.84
2023-03-17T21:50:10.589Z,9.78
2023-03-17T21:55:42.054Z,9.65
2023-03-17T22:01:14.205Z,9.60
2023-03-17T22:06:46.014Z,9.49
2023-03-17T22:12:17.883Z,9.43
2023-03-17T22:17:49.582Z,9.32
2023-03-17T22:23:21.762Z,9.29
2023-03-17T22:28:53.258Z,9.22
2023-03-17T22:34:25.990Z,9.18
2023-03-17T22:39:58.150Z,9.07
2023-03-17T22:45:29.950Z,9.02
2023-03-17T22:51:01.410Z,8.90
2023-03-17T22:56:33.374Z,8.87
2023-03-17T23:02:04.915Z,8.75
2023-03-17T23:07:48.017Z,8.71
2023-03-17T23:13:07.749Z,8.64
2023-03-17T23:18:39.373Z,8.59
2023-03-17T23:24:11.182Z,8.52
2023-03-17T23:29:43.048Z,8.52
2023-03-17T23:35:14.897Z,8.50
2023-03-17T23:40:46.538Z,8.47
2023-03-17T23:46:18.456Z,8.43
2023-03-17T23:51:50.733Z,8.42
2023-03-17T23:57:22.378Z,8.35
